Time;durP1;ratioP1;P1;durP2;ratioP2;P2;SDS_P1;SDS_P2;PMS_P1;PMS_P2;Temp;Humidity;BMP_temperature;BMP_pressure;BME280_temperature;BME280_humidity;BME280_pressure;Samples;Min_cycle;Max_cycle;Signal;HPM_P1;HPM_P2
2022/01/29 00:02:09;;;;;;;55.00;20.87;;;1.60;95.50;;;;;;5047025;28;20238;-67
2022/01/29 00:04:36;;;;;;;75.87;25.57;;;1.50;95.50;;;;;;5044611;28;20295;-67
2022/01/29 00:07:04;;;;;;;113.40;24.17;;;1.50;95.60;;;;;;5036736;28;20206;-67
2022/01/29 00:09:31;;;;;;;96.47;26.00;;;1.50;95.60;;;;;;5051353;28;20241;-66
2022/01/29 00:11:58;;;;;;;60.53;22.30;;;1.50;95.60;;;;;;5045779;28;20246;-66
2022/01/29 00:14:25;;;;;;;56.03;23.47;;;1.50;95.70;;;;;;5048661;28;20210;-66
2022/01/29 00:16:52;;;;;;;83.90;22.10;;;1.50;95.60;;;;;;5043005;28;20199;-66
2022/01/29 00:19:19;;;;;;;106.97;24.17;;;1.50;95.70;;;;;;5037695;28;20207;-67
2022/01/29 00:21:46;;;;;;;100.80;27.60;;;1.50;95.60;;;;;;5050229;28;20239;-67
2022/01/29 00:24:14;;;;;;;83.10;23.93;;;1.50;95.70;;;;;;5046100;28;20237;-67
2022/01/29 00:26:41;;;;;;;75.83;27.73;;;1.50;95.90;;;;;;5047315;28;20302;-67
2022/01/29 00:29:17;;;;;;;193.93;30.20;;;1.50;95.90;;;;;;5053691;28;20301;-66
2022/01/29 00:31:44;;;;;;;128.47;35.00;;;1.50;96.00;;;;;;5053972;28;20195;-66
2022/01/29 00:34:11;;;;;;;263.17;44.23;;;1.60;96.00;;;;;;5046063;28;20229;-66
2022/01/29 00:36:38;;;;;;;262.60;40.90;;;1.60;96.00;;;;;;5036483;28;20211;-66
2022/01/29 00:39:06;;;;;;;259.13;42.87;;;1.50;95.90;;;;;;5030738;28;20928;-66
2022/01/29 00:41:33;;;;;;;118.57;34.10;;;1.50;96.10;;;;;;5036671;28;20207;-66
2022/01/29 00:44:00;;;;;;;89.47;30.57;;;1.50;96.20;;;;;;5040755;28;20235;-67
2022/01/29 00:46:27;;;;;;;129.47;38.63;;;1.50;96.40;;;;;;5047317;28;20282;-67
2022/01/29 00:48:55;;;;;;;270.20;40.37;;;1.40;96.50;;;;;;5043354;28;20200;-67
2022/01/29 00:51:22;;;;;;;198.43;34.20;;;1.40;96.60;;;;;;5039495;28;20264;-67
2022/01/29 00:53:49;;;;;;;170.97;37.20;;;1.40;96.40;;;;;;5036692;28;20214;-67
2022/01/29 00:56:16;;;;;;;132.97;29.57;;;1.30;96.50;;;;;;5050693;28;20222;-66
2022/01/29 00:58:43;;;;;;;221.47;33.43;;;1.30;96.60;;;;;;5037027;28;20211;-67
2022/01/29 01:01:10;;;;;;;163.40;31.17;;;1.30;96.60;;;;;;5042302;28;20282;-67
2022/01/29 01:03:37;;;;;;;104.83;29.20;;;1.30;96.80;;;;;;5037130;28;20242;-67
2022/01/29 01:06:05;;;;;;;191.90;33.20;;;1.20;96.90;;;;;;5036200;28;20226;-67
2022/01/29 01:08:32;;;;;;;137.90;29.67;;;1.20;96.80;;;;;;5052631;28;20206;-66
2022/01/29 01:10:59;;;;;;;92.70;27.43;;;1.20;96.70;;;;;;5051526;28;20224;-67
2022/01/29 01:13:26;;;;;;;115.50;30.37;;;1.20;96.70;;;;;;5047816;28;20210;-67
2022/01/29 01:15:54;;;;;;;215.90;32.90;;;1.20;96.70;;;;;;5040675;28;20595;-67
2022/01/29 01:18:21;;;;;;;101.63;26.13;;;1.20;96.60;;;;;;5042841;28;20289;-66
2022/01/29 01:20:48;;;;;;;154.47;30.57;;;1.20;96.60;;;;;;5039799;28;20580;-66
2022/01/29 01:23:15;;;;;;;82.90;27.73;;;1.20;96.30;;;;;;5045746;28;20242;-66
2022/01/29 01:25:42;;;;;;;63.93;27.83;;;1.10;96.10;;;;;;5040470;28;20647;-66
2022/01/29 01:28:09;;;;;;;77.90;25.17;;;1.00;96.20;;;;;;5036153;28;20195;-66
2022/01/29 01:30:36;;;;;;;92.03;25.07;;;1.00;96.40;;;;;;5037310;28;20203;-66
2022/01/29 01:33:04;;;;;;;47.67;23.83;;;0.90;96.30;;;;;;5042366;28;20203;-66
2022/01/29 01:35:38;;;;;;;141.43;29.43;;;0.90;96.40;;;;;;5043496;28;20211;-66
2022/01/29 01:40:32;;;;;;;83.47;27.37;;;0.80;96.50;;;;;;5045049;28;20223;-66
2022/01/29 01:43:00;;;;;;;40.07;24.93;;;0.80;96.50;;;;;;5050100;28;20219;-66
2022/01/29 01:45:28;;;;;;;97.87;26.50;;;0.80;96.70;;;;;;5051149;28;20190;-66
2022/01/29 01:47:57;;;;;;;89.60;26.50;;;0.80;96.70;;;;;;5042153;28;20203;-66
2022/01/29 01:50:24;;;;;;;108.93;28.37;;;0.70;96.60;;;;;;5047867;28;20203;-66
2022/01/29 01:52:52;;;;;;;70.57;28.73;;;0.70;96.70;;;;;;5035687;28;20564;-66
2022/01/29 01:55:19;;;;;;;61.60;25.13;;;0.70;96.70;;;;;;5048197;28;20215;-66
2022/01/29 01:57:46;;;;;;;70.23;28.20;;;0.70;96.70;;;;;;5042484;28;20530;-67
2022/01/29 02:00:13;;;;;;;53.53;23.90;;;0.70;96.70;;;;;;5046549;28;20533;-66
2022/01/29 02:02:40;;;;;;;60.30;25.53;;;0.70;96.80;;;;;;5036342;28;20660;-66
2022/01/29 02:05:09;;;;;;;74.97;26.80;;;0.70;96.70;;;;;;5036543;28;20257;-67
2022/01/29 02:07:37;;;;;;;52.60;25.87;;;0.80;96.80;;;;;;5042013;28;20297;-67
2022/01/29 02:10:09;;;;;;;68.60;26.90;;;0.80;96.80;;;;;;5043156;28;20206;-67
2022/01/29 02:12:59;;;;;;;168.40;29.47;;;0.80;96.80;;;;;;5042666;28;20230;-67
2022/01/29 02:15:26;;;;;;;75.80;26.83;;;0.90;96.80;;;;;;5050417;28;20206;-66
2022/01/29 02:17:54;;;;;;;79.77;29.90;;;0.90;96.80;;;;;;5040604;28;20199;-67
2022/01/29 02:20:30;;;;;;;56.53;28.77;;;1.00;96.80;;;;;;5043470;28;20562;-66
2022/01/29 02:23:00;;;;;;;57.90;27.60;;;1.00;96.80;;;;;;5040499;28;20215;-66
2022/01/29 02:25:43;;;;;;;61.93;28.27;;;1.10;96.80;;;;;;5050813;28;20205;-66
2022/01/29 02:28:14;;;;;;;46.90;26.73;;;1.10;96.70;;;;;;5037237;28;20191;-66
2022/01/29 02:30:44;;;;;;;52.10;26.40;;;1.20;96.70;;;;;;5043703;28;20290;-66
2022/01/29 02:33:13;;;;;;;66.63;27.43;;;1.30;96.60;;;;;;5048331;28;20232;-66
2022/01/29 02:35:52;;;;;;;195.40;27.80;;;1.30;96.50;;;;;;5045352;28;20213;-66
2022/01/29 02:38:22;;;;;;;60.67;25.03;;;1.30;96.30;;;;;;5061076;28;20203;-66
2022/01/29 02:41:01;;;;;;;54.27;23.83;;;1.30;96.10;;;;;;5050133;28;20215;-66
2022/01/29 02:43:49;;;;;;;45.97;23.53;;;1.30;96.10;;;;;;5044467;28;20215;-67
2022/01/29 02:48:49;;;;;;;58.50;24.80;;;1.30;95.90;;;;;;5052592;28;20223;-66
2022/01/29 02:51:17;;;;;;;78.40;26.83;;;1.30;95.80;;;;;;5055109;28;20206;-66
2022/01/29 02:53:44;;;;;;;60.37;25.63;;;1.30;95.70;;;;;;5051648;28;20256;-66
2022/01/29 02:56:11;;;;;;;67.37;24.83;;;1.30;95.50;;;;;;5052128;28;20212;-66
2022/01/29 02:58:38;;;;;;;92.47;26.37;;;1.30;95.40;;;;;;5045821;28;20199;-66
2022/01/29 03:01:07;;;;;;;76.20;25.43;;;1.30;95.40;;;;;;5050867;28;20647;-66
2022/01/29 03:03:34;;;;;;;76.50;27.27;;;1.30;95.50;;;;;;5039758;28;20720;-66
2022/01/29 03:06:07;;;;;;;61.47;25.40;;;1.30;95.50;;;;;;5046862;28;20246;-66
2022/01/29 03:08:34;;;;;;;67.90;25.23;;;1.40;95.40;;;;;;5045772;28;20210;-66
2022/01/29 03:11:01;;;;;;;109.87;26.00;;;1.40;95.40;;;;;;5053080;28;20207;-66
2022/01/29 03:13:28;;;;;;;60.77;26.07;;;1.40;95.30;;;;;;5038746;28;20209;-67
2022/01/29 03:15:55;;;;;;;96.03;24.83;;;1.40;95.10;;;;;;5053438;28;20288;-67
2022/01/29 03:18:22;;;;;;;129.67;27.33;;;1.40;95.00;;;;;;5044807;28;20210;-67
2022/01/29 03:20:49;;;;;;;153.40;24.37;;;1.30;94.90;;;;;;5046962;28;20235;-67
2022/01/29 03:23:16;;;;;;;108.80;25.30;;;1.30;94.90;;;;;;5045793;28;20229;-67
2022/01/29 03:25:43;;;;;;;195.57;25.23;;;1.30;94.80;;;;;;5055729;28;20505;-67
2022/01/29 03:28:10;;;;;;;72.63;24.27;;;1.20;94.70;;;;;;5044909;28;20209;-67
2022/01/29 03:30:37;;;;;;;62.33;23.90;;;1.20;94.60;;;;;;5043080;28;20223;-67
2022/01/29 03:33:04;;;;;;;119.10;23.73;;;1.10;94.60;;;;;;5044155;28;20717;-67
2022/01/29 03:35:31;;;;;;;100.07;19.97;;;1.10;94.50;;;;;;5039238;28;20515;-67
2022/01/29 03:37:58;;;;;;;139.10;24.57;;;1.10;94.50;;;;;;5040939;28;20209;-67
2022/01/29 03:40:25;;;;;;;75.00;22.43;;;1.00;94.40;;;;;;5050053;28;20199;-67
2022/01/29 03:43:09;;;;;;;147.47;21.63;;;1.00;94.40;;;;;;5046005;28;20662;-67
2022/01/29 03:45:36;;;;;;;100.83;22.33;;;1.00;94.50;;;;;;5052099;28;20214;-67
2022/01/29 03:48:06;;;;;;;103.70;21.37;;;0.90;94.40;;;;;;5038263;28;20218;-67
2022/01/29 03:50:34;;;;;;;76.40;19.20;;;0.90;94.70;;;;;;5050579;28;20211;-67
2022/01/29 03:53:01;;;;;;;49.27;19.07;;;0.80;94.40;;;;;;5049870;28;20203;-67
2022/01/29 03:55:28;;;;;;;68.97;22.60;;;0.90;94.50;;;;;;5044820;28;20523;-67
2022/01/29 03:57:55;;;;;;;49.13;23.30;;;0.90;94.60;;;;;;5045508;28;20203;-67
2022/01/29 04:00:22;;;;;;;60.03;23.50;;;0.90;94.70;;;;;;5039077;28;20204;-67
2022/01/29 04:02:49;;;;;;;63.30;23.50;;;0.90;94.70;;;;;;5044053;28;20215;-67
2022/01/29 04:05:16;;;;;;;84.50;23.47;;;0.90;94.80;;;;;;5047562;28;20230;-67
2022/01/29 04:07:43;;;;;;;84.37;23.93;;;1.00;94.80;;;;;;5028111;28;20576;-67
2022/01/29 04:10:12;;;;;;;103.73;22.67;;;1.00;95.10;;;;;;5045450;28;20218;-67
2022/01/29 04:12:45;;;;;;;109.93;24.73;;;1.10;95.10;;;;;;5052158;28;20194;-67
2022/01/29 04:15:12;;;;;;;86.03;24.80;;;1.10;94.80;;;;;;5036181;28;20590;-67
2022/01/29 04:17:39;;;;;;;48.27;24.30;;;1.10;94.80;;;;;;5044267;28;20220;-67
2022/01/29 04:20:07;;;;;;;113.87;26.63;;;1.10;94.70;;;;;;5036466;28;20337;-67
2022/01/29 04:22:34;;;;;;;106.70;23.07;;;1.10;94.70;;;;;;5053665;28;20207;-67
2022/01/29 04:25:01;;;;;;;78.40;22.30;;;1.10;94.70;;;;;;5048194;28;20226;-67
2022/01/29 04:27:38;;;;;;;68.67;22.00;;;1.10;94.70;;;;;;5051896;28;20548;-67
2022/01/29 04:30:27;;;;;;;128.27;24.10;;;1.10;94.70;;;;;;5046085;28;20202;-67
2022/01/29 04:33:00;;;;;;;107.53;24.53;;;1.00;94.70;;;;;;5049530;28;20278;-67
2022/01/29 04:35:28;;;;;;;131.63;26.33;;;1.00;94.60;;;;;;5046909;28;20198;-67
2022/01/29 04:37:55;;;;;;;97.93;24.73;;;1.00;94.50;;;;;;5045938;28;20264;-67
2022/01/29 04:40:22;;;;;;;89.87;24.50;;;1.00;94.50;;;;;;5042080;28;20199;-67
2022/01/29 04:42:49;;;;;;;158.87;30.37;;;1.00;94.50;;;;;;5045057;28;20203;-67
2022/01/29 04:45:16;;;;;;;161.27;26.97;;;1.00;94.60;;;;;;5038795;28;20227;-67
2022/01/29 04:47:44;;;;;;;128.40;27.63;;;1.00;94.60;;;;;;5036661;28;20226;-67
2022/01/29 04:50:11;;;;;;;113.00;27.23;;;1.00;94.70;;;;;;5040800;28;20296;-66
2022/01/29 04:52:38;;;;;;;77.20;25.60;;;1.00;94.70;;;;;;5051031;28;20199;-66
2022/01/29 04:55:06;;;;;;;103.33;28.37;;;1.00;94.80;;;;;;5053088;28;20721;-66
2022/01/29 04:57:33;;;;;;;79.63;31.07;;;1.00;94.80;;;;;;5052653;28;20215;-66
2022/01/29 05:00:00;;;;;;;130.47;29.70;;;1.10;94.90;;;;;;5045430;28;20223;-66
2022/01/29 05:02:27;;;;;;;107.40;27.70;;;1.10;94.80;;;;;;5040858;28;20208;-67
2022/01/29 05:04:54;;;;;;;72.10;29.10;;;1.10;94.80;;;;;;5051583;28;20676;-67
2022/01/29 05:07:21;;;;;;;71.43;31.07;;;1.10;94.80;;;;;;5040455;28;20203;-67
2022/01/29 05:09:49;;;;;;;95.37;31.87;;;1.10;94.80;;;;;;5039592;28;20265;-67
2022/01/29 05:12:23;;;;;;;109.67;27.27;;;1.10;94.80;;;;;;5050481;28;20250;-67
2022/01/29 05:28:42;;;;;;;90.03;27.03;;;1.20;94.70;;;;;;5043534;28;20233;-67
2022/01/29 05:31:09;;;;;;;113.83;26.53;;;1.20;94.70;;;;;;5039382;28;20205;-67
2022/01/29 05:33:36;;;;;;;90.87;30.30;;;1.20;94.70;;;;;;5035722;28;20203;-67
2022/01/29 05:36:04;;;;;;;98.77;25.27;;;1.20;94.70;;;;;;5048747;28;20307;-67
2022/01/29 05:38:31;;;;;;;231.93;30.30;;;1.20;94.70;;;;;;5050214;28;20575;-67
2022/01/29 05:40:58;;;;;;;108.60;27.20;;;1.20;94.70;;;;;;5040602;28;20206;-67
2022/01/29 05:43:25;;;;;;;104.03;26.33;;;1.20;94.60;;;;;;5041614;28;20198;-67
2022/01/29 05:45:52;;;;;;;97.60;28.53;;;1.10;94.50;;;;;;5049398;28;20276;-66
2022/01/29 05:48:19;;;;;;;154.67;25.83;;;1.10;94.60;;;;;;5050276;28;20211;-66
2022/01/29 05:50:46;;;;;;;154.43;25.33;;;1.10;94.60;;;;;;5045361;28;20201;-67
2022/01/29 05:53:13;;;;;;;103.50;22.83;;;1.10;94.50;;;;;;5041380;28;20225;-67
2022/01/29 05:55:40;;;;;;;109.27;23.43;;;1.10;94.50;;;;;;5037283;28;20204;-67
2022/01/29 05:58:08;;;;;;;78.10;23.43;;;1.10;94.60;;;;;;5036327;28;20222;-67
2022/01/29 06:00:35;;;;;;;119.47;26.03;;;1.10;94.60;;;;;;5040931;28;20221;-67
2022/01/29 06:03:08;;;;;;;94.67;23.40;;;1.00;94.60;;;;;;5044534;28;20285;-67
2022/01/29 06:05:36;;;;;;;80.57;23.60;;;1.00;94.50;;;;;;5047790;28;20226;-67
2022/01/29 06:08:04;;;;;;;82.77;21.97;;;1.00;94.50;;;;;;5047928;28;20196;-66
2022/01/29 06:10:31;;;;;;;59.00;24.13;;;1.00;94.40;;;;;;5037656;28;20215;-66
2022/01/29 06:13:10;;;;;;;94.00;25.67;;;0.90;94.20;;;;;;5050548;28;20212;-66
2022/01/29 06:15:41;;;;;;;48.20;23.27;;;0.80;94.20;;;;;;5045796;28;20202;-66
2022/01/29 06:18:15;;;;;;;51.77;22.00;;;0.80;94.20;;;;;;5038828;28;20264;-66
2022/01/29 06:20:44;;;;;;;43.00;21.30;;;0.70;94.40;;;;;;5052203;28;20257;-66
2022/01/29 06:23:13;;;;;;;94.27;24.13;;;0.70;94.30;;;;;;5050008;28;20217;-66
2022/01/29 06:25:41;;;;;;;52.60;22.13;;;0.60;94.20;;;;;;5055051;28;20276;-66
2022/01/29 06:28:08;;;;;;;50.70;20.00;;;0.60;94.30;;;;;;5045178;28;20198;-67
2022/01/29 06:30:35;;;;;;;45.13;21.37;;;0.60;94.20;;;;;;5043058;28;20211;-66
2022/01/29 06:33:10;;;;;;;49.37;19.70;;;0.60;94.20;;;;;;5051084;28;20199;-66
2022/01/29 06:35:39;;;;;;;44.43;17.13;;;0.50;94.10;;;;;;5043483;28;20209;-66
2022/01/29 06:38:08;;;;;;;43.47;18.97;;;0.50;93.80;;;;;;5043588;28;20198;-66
2022/01/29 06:40:36;;;;;;;43.07;19.37;;;0.40;93.80;;;;;;5048190;28;20202;-66
2022/01/29 06:43:04;;;;;;;42.80;18.77;;;0.30;93.80;;;;;;5041532;28;20721;-66
2022/01/29 06:45:32;;;;;;;24.43;17.43;;;0.30;93.60;;;;;;5052302;28;20237;-66
2022/01/29 06:47:59;;;;;;;27.47;18.33;;;0.20;93.60;;;;;;5049284;28;20206;-66
2022/01/29 06:50:27;;;;;;;33.43;19.17;;;0.20;93.70;;;;;;5046767;28;20589;-66
2022/01/29 06:52:55;;;;;;;29.93;17.37;;;0.20;93.70;;;;;;5050850;28;20221;-66
2022/01/29 06:55:22;;;;;;;30.03;17.83;;;0.20;93.60;;;;;;5056245;28;20638;-66
2022/01/29 06:57:49;;;;;;;21.30;16.07;;;0.20;93.60;;;;;;5052755;28;20206;-66
2022/01/29 07:00:36;;;;;;;27.77;17.47;;;0.20;93.50;;;;;;5052998;28;20299;-66
2022/01/29 07:03:03;;;;;;;24.83;16.20;;;0.10;93.40;;;;;;5048484;28;20211;-66
2022/01/29 07:05:30;;;;;;;22.47;17.13;;;0.10;93.40;;;;;;5040113;28;20231;-66
2022/01/29 07:07:57;;;;;;;25.07;17.90;;;0.10;93.40;;;;;;5044991;28;20200;-65
2022/01/29 07:10:25;;;;;;;27.37;17.37;;;0.00;93.40;;;;;;5046785;28;20207;-66
2022/01/29 07:12:52;;;;;;;23.60;16.87;;;0.00;93.40;;;;;;5047456;28;20301;-66
2022/01/29 07:15:20;;;;;;;26.10;17.03;;;0.00;93.40;;;;;;5052993;28;20704;-66
2022/01/29 07:17:47;;;;;;;25.70;17.27;;;0.00;93.60;;;;;;5044410;28;20203;-66
2022/01/29 07:20:14;;;;;;;23.93;17.77;;;0.10;93.30;;;;;;5052315;28;20257;-66
2022/01/29 07:22:41;;;;;;;24.93;17.37;;;0.20;93.40;;;;;;5050743;28;20662;-66
2022/01/29 07:25:08;;;;;;;23.53;16.93;;;0.50;93.30;;;;;;5053139;28;20654;-67
2022/01/29 07:27:35;;;;;;;22.33;16.03;;;0.80;92.80;;;;;;5042748;28;20206;-67
2022/01/29 07:30:03;;;;;;;23.53;17.07;;;1.20;91.70;;;;;;5038339;28;20244;-67
2022/01/29 07:32:30;;;;;;;25.23;17.93;;;1.30;91.10;;;;;;5051135;28;20638;-67
2022/01/29 07:34:57;;;;;;;22.13;16.40;;;1.30;91.30;;;;;;5052362;28;20219;-67
2022/01/29 07:37:24;;;;;;;25.23;16.57;;;1.20;90.80;;;;;;5048014;28;20210;-67
2022/01/29 07:39:51;;;;;;;42.53;24.50;;;1.00;90.70;;;;;;5046377;28;20207;-67
2022/01/29 07:42:18;;;;;;;24.37;17.20;;;0.90;91.10;;;;;;5055315;28;20529;-67
2022/01/29 07:44:46;;;;;;;23.47;17.17;;;0.90;91.50;;;;;;5054747;28;20231;-67
2022/01/29 07:47:13;;;;;;;62.97;30.37;;;0.90;91.80;;;;;;5047800;28;20202;-67
2022/01/29 07:49:40;;;;;;;22.53;16.93;;;0.90;92.00;;;;;;5043109;28;20207;-67
2022/01/29 07:52:07;;;;;;;23.27;16.90;;;0.90;92.10;;;;;;5052455;28;20656;-67
2022/01/29 07:54:34;;;;;;;22.80;16.77;;;1.00;92.10;;;;;;5055431;28;20206;-67
2022/01/29 07:57:01;;;;;;;25.27;17.40;;;1.00;92.20;;;;;;5047552;28;20207;-67
2022/01/29 07:59:28;;;;;;;32.67;18.43;;;1.10;92.10;;;;;;5049826;28;20550;-67
2022/01/29 08:01:55;;;;;;;22.03;17.27;;;1.20;92.00;;;;;;5049671;28;20203;-67
2022/01/29 08:04:24;;;;;;;23.43;16.87;;;1.20;91.90;;;;;;5039138;28;20234;-67
2022/01/29 08:06:51;;;;;;;27.50;16.33;;;1.30;91.60;;;;;;5051451;28;20207;-67
2022/01/29 08:09:19;;;;;;;22.87;17.57;;;1.30;91.50;;;;;;5048465;28;20207;-67
2022/01/29 08:11:46;;;;;;;23.20;16.77;;;1.30;91.60;;;;;;5045807;28;20213;-67
2022/01/29 08:14:14;;;;;;;132.67;50.70;;;1.30;91.80;;;;;;5049956;28;20260;-67
2022/01/29 08:16:41;;;;;;;372.60;109.20;;;1.40;91.80;;;;;;5051177;28;20221;-67
2022/01/29 08:19:08;;;;;;;48.60;25.70;;;1.40;91.60;;;;;;5053947;28;20216;-66
2022/01/29 08:21:38;;;;;;;25.30;17.83;;;1.40;91.50;;;;;;5051603;28;20239;-66
2022/01/29 08:24:06;;;;;;;22.47;17.83;;;1.50;91.60;;;;;;5044296;28;20199;-66
2022/01/29 08:26:34;;;;;;;23.00;16.47;;;1.50;91.50;;;;;;5046615;28;20246;-66
2022/01/29 08:29:01;;;;;;;23.33;15.67;;;1.50;91.50;;;;;;5035682;28;20222;-66
2022/01/29 08:31:28;;;;;;;23.07;16.70;;;1.60;91.60;;;;;;5050287;28;20610;-66
2022/01/29 08:33:55;;;;;;;23.67;16.93;;;1.60;91.70;;;;;;5043400;28;20642;-66
2022/01/29 08:36:22;;;;;;;21.63;15.57;;;1.60;91.90;;;;;;5035049;28;20207;-66
2022/01/29 08:38:49;;;;;;;26.30;18.27;;;1.60;91.90;;;;;;5039634;28;20294;-66
2022/01/29 08:41:16;;;;;;;26.00;18.23;;;1.70;92.00;;;;;;5036113;28;20214;-66
2022/01/29 08:43:43;;;;;;;26.00;18.20;;;1.70;92.10;;;;;;5039552;28;20205;-66
2022/01/29 08:46:11;;;;;;;27.50;19.17;;;1.70;92.30;;;;;;5043943;28;20235;-67
2022/01/29 08:48:38;;;;;;;27.97;18.70;;;1.70;92.20;;;;;;5051278;28;20623;-66
2022/01/29 08:51:05;;;;;;;25.63;19.27;;;1.80;92.30;;;;;;5053115;28;20217;-66
2022/01/29 08:53:34;;;;;;;26.67;20.33;;;1.80;92.40;;;;;;5053471;28;20203;-67
2022/01/29 08:56:01;;;;;;;32.50;20.60;;;1.90;92.40;;;;;;5043035;28;20203;-66
2022/01/29 08:58:28;;;;;;;31.13;21.20;;;1.90;92.30;;;;;;5028720;28;20226;-66
2022/01/29 09:00:55;;;;;;;30.87;21.70;;;1.90;92.40;;;;;;5048336;28;20207;-67
2022/01/29 09:03:23;;;;;;;36.37;23.37;;;1.90;92.50;;;;;;5035399;28;20264;-66
2022/01/29 09:05:51;;;;;;;33.80;23.67;;;2.00;92.70;;;;;;5049456;28;20364;-67
2022/01/29 09:08:20;;;;;;;31.30;21.53;;;2.00;92.80;;;;;;5041776;28;20208;-66
2022/01/29 09:10:47;;;;;;;32.47;22.33;;;2.10;92.90;;;;;;5041382;28;20254;-66
2022/01/29 09:13:14;;;;;;;39.37;25.10;;;2.10;92.70;;;;;;5038722;28;20236;-67
2022/01/29 09:15:42;;;;;;;39.67;24.53;;;2.10;92.70;;;;;;5047447;28;20238;-66
2022/01/29 09:18:09;;;;;;;41.50;25.43;;;2.10;93.10;;;;;;5038325;28;20636;-66
2022/01/29 09:20:36;;;;;;;38.00;25.73;;;2.10;92.90;;;;;;5043355;28;20550;-66
2022/01/29 09:23:03;;;;;;;35.67;23.77;;;2.10;93.30;;;;;;5042599;28;20211;-66
2022/01/29 09:25:31;;;;;;;41.47;24.97;;;2.20;93.20;;;;;;5036235;28;20211;-66
2022/01/29 09:28:00;;;;;;;42.93;27.53;;;2.20;93.40;;;;;;5048881;28;20217;-66
2022/01/29 09:30:27;;;;;;;40.67;29.33;;;2.20;93.40;;;;;;5051436;28;20214;-66
2022/01/29 09:32:54;;;;;;;50.97;31.00;;;2.30;93.40;;;;;;5051190;28;20227;-67
2022/01/29 09:35:21;;;;;;;48.47;29.70;;;2.30;93.60;;;;;;5050939;28;20224;-68
2022/01/29 09:37:48;;;;;;;55.00;32.30;;;2.30;93.40;;;;;;5052193;28;20206;-67
2022/01/29 09:40:16;;;;;;;49.20;29.97;;;2.40;93.60;;;;;;5040882;28;20210;-67
2022/01/29 09:42:46;;;;;;;51.30;30.43;;;2.50;93.80;;;;;;5040574;28;20207;-66
2022/01/29 09:45:15;;;;;;;51.73;30.30;;;2.60;93.80;;;;;;5044601;28;20223;-66
2022/01/29 09:47:44;;;;;;;53.77;31.23;;;2.70;93.80;;;;;;5052422;28;20206;-66
2022/01/29 09:50:14;;;;;;;63.37;32.80;;;2.80;93.90;;;;;;5051929;28;20542;-67
2022/01/29 09:52:42;;;;;;;175.43;35.23;;;2.90;93.90;;;;;;5050974;28;20204;-67
2022/01/29 09:55:11;;;;;;;184.70;38.17;;;3.00;94.10;;;;;;5049631;28;20285;-67
2022/01/29 09:57:38;;;;;;;135.10;36.93;;;3.10;94.20;;;;;;5050203;28;20210;-67
2022/01/29 10:00:06;;;;;;;137.50;40.27;;;3.30;94.30;;;;;;5039139;28;20650;-67
2022/01/29 10:02:40;;;;;;;113.70;37.00;;;3.40;94.50;;;;;;5048969;28;20558;-67
2022/01/29 10:05:09;;;;;;;119.37;37.37;;;3.40;94.50;;;;;;5020431;28;20686;-67
2022/01/29 10:07:36;;;;;;;167.50;37.67;;;3.50;94.50;;;;;;5048588;28;20203;-67
2022/01/29 10:10:18;;;;;;;137.57;35.97;;;3.60;94.60;;;;;;5024260;28;20306;-67
2022/01/29 10:12:45;;;;;;;97.27;32.37;;;3.70;94.50;;;;;;5043420;28;20258;-67
2022/01/29 10:15:12;;;;;;;119.10;35.57;;;3.70;94.40;;;;;;5050231;28;20212;-68
2022/01/29 10:17:44;;;;;;;181.70;38.33;;;3.80;94.30;;;;;;5043071;28;20203;-67
2022/01/29 10:20:29;;;;;;;111.87;36.67;;;3.70;94.10;;;;;;5042300;28;20236;-67
2022/01/29 10:22:59;;;;;;;71.20;35.23;;;3.80;94.20;;;;;;5041101;28;20199;-67
2022/01/29 10:25:33;;;;;;;101.93;35.13;;;3.80;94.30;;;;;;5019687;28;20227;-67
2022/01/29 10:28:11;;;;;;;69.07;35.10;;;3.90;94.40;;;;;;5037627;28;20528;-67
2022/01/29 10:30:51;;;;;;;69.47;35.53;;;4.00;94.50;;;;;;5046063;28;20746;-67
2022/01/29 10:33:28;;;;;;;60.97;34.03;;;4.20;94.60;;;;;;5026420;28;20850;-67
2022/01/29 10:36:01;;;;;;;75.97;34.00;;;4.40;94.50;;;;;;5040477;28;20222;-67
2022/01/29 10:38:40;;;;;;;73.77;35.53;;;4.50;94.40;;;;;;5045356;28;20223;-67
2022/01/29 10:41:16;;;;;;;67.33;33.80;;;4.60;94.20;;;;;;5041824;28;20287;-67
2022/01/29 10:44:22;;;;;;;62.80;34.97;;;4.60;94.00;;;;;;5050816;28;20212;-68
2022/01/29 10:46:56;;;;;;;71.53;33.87;;;4.60;93.70;;;;;;5039658;28;20234;-67
2022/01/29 10:49:31;;;;;;;66.27;34.03;;;4.60;93.70;;;;;;5041654;28;20627;-67
2022/01/29 10:52:12;;;;;;;71.50;34.40;;;4.70;93.60;;;;;;5044587;28;20199;-67
2022/01/29 10:54:41;;;;;;;75.30;36.67;;;4.70;93.40;;;;;;5038527;28;20208;-67
2022/01/29 10:57:16;;;;;;;69.40;35.07;;;4.70;93.40;;;;;;5048902;28;20295;-67
2022/01/29 10:59:51;;;;;;;77.13;35.77;;;4.70;93.30;;;;;;5046013;28;20302;-67
2022/01/29 11:02:20;;;;;;;60.43;35.20;;;4.70;93.30;;;;;;5040662;28;20255;-67
2022/01/29 11:04:48;;;;;;;73.50;36.20;;;4.70;93.30;;;;;;5041310;28;20206;-67
2022/01/29 11:07:18;;;;;;;75.70;36.93;;;4.70;93.20;;;;;;5040087;28;20337;-67
2022/01/29 11:09:50;;;;;;;66.13;34.03;;;4.70;93.20;;;;;;5041055;28;20204;-67
2022/01/29 11:12:20;;;;;;;74.00;37.60;;;4.70;93.20;;;;;;5024696;28;20213;-67
2022/01/29 11:14:49;;;;;;;66.97;38.20;;;4.70;93.30;;;;;;5047585;28;20202;-66
2022/01/29 11:17:18;;;;;;;68.70;36.57;;;4.80;93.50;;;;;;5045004;28;20217;-66
2022/01/29 11:19:46;;;;;;;72.33;38.50;;;4.90;93.60;;;;;;5043529;28;20323;-66
2022/01/29 11:22:21;;;;;;;72.10;38.83;;;5.00;93.50;;;;;;5044195;28;20208;-66
2022/01/29 11:24:54;;;;;;;78.23;40.73;;;5.10;93.50;;;;;;5044854;28;20213;-66
2022/01/29 11:27:23;;;;;;;71.77;38.67;;;5.10;93.60;;;;;;5047603;28;20208;-66
2022/01/29 11:30:08;;;;;;;70.27;37.13;;;5.20;93.40;;;;;;5045640;28;20215;-66
2022/01/29 11:32:53;;;;;;;71.60;37.93;;;5.20;93.10;;;;;;5043794;28;20214;-66
2022/01/29 11:35:25;;;;;;;68.33;37.83;;;5.20;93.00;;;;;;5046793;28;20242;-66
2022/01/29 11:38:01;;;;;;;65.43;37.60;;;5.20;93.10;;;;;;5038929;28;20209;-66
2022/01/29 11:41:01;;;;;;;71.53;37.80;;;5.20;92.90;;;;;;5053700;28;20637;-67
2022/01/29 11:43:30;;;;;;;63.47;37.17;;;5.20;92.60;;;;;;5036909;28;20284;-67
2022/01/29 11:46:06;;;;;;;62.00;36.30;;;5.20;92.70;;;;;;5051815;28;20237;-66
2022/01/29 11:48:38;;;;;;;71.37;38.17;;;5.20;92.90;;;;;;5038655;28;20204;-66
2022/01/29 11:51:07;;;;;;;69.63;38.53;;;5.20;92.90;;;;;;5053097;28;20209;-67
2022/01/29 11:53:48;;;;;;;67.47;37.17;;;5.30;92.70;;;;;;5044348;28;20206;-67
2022/01/29 11:56:48;;;;;;;68.33;39.87;;;5.30;92.60;;;;;;5041124;28;20220;-67
2022/01/29 11:59:21;;;;;;;69.47;37.90;;;5.30;92.70;;;;;;5027216;28;20225;-67
2022/01/29 12:01:55;;;;;;;61.60;35.70;;;5.40;92.90;;;;;;5053224;28;20244;-67
2022/01/29 12:04:24;;;;;;;61.90;36.40;;;5.60;92.90;;;;;;5042264;28;20244;-67
2022/01/29 12:07:10;;;;;;;61.57;37.67;;;5.70;92.70;;;;;;5042875;28;20217;-67
2022/01/29 12:09:57;;;;;;;59.67;36.20;;;5.90;92.60;;;;;;5040446;28;20214;-66
2022/01/29 12:12:27;;;;;;;63.10;36.23;;;6.10;92.20;;;;;;5045761;28;20369;-67
2022/01/29 12:15:18;;;;;;;59.07;36.30;;;6.10;91.80;;;;;;5041238;28;20216;-67
2022/01/29 12:18:01;;;;;;;60.53;34.50;;;6.20;91.90;;;;;;5043194;28;20219;-67
2022/01/29 12:20:29;;;;;;;58.97;36.00;;;6.20;92.00;;;;;;5043021;28;20264;-67
2022/01/29 12:23:05;;;;;;;59.87;34.00;;;6.40;92.10;;;;;;5037339;28;20285;-67
2022/01/29 12:25:32;;;;;;;57.03;33.33;;;6.50;91.50;;;;;;5046678;28;20244;-67
2022/01/29 12:28:01;;;;;;;53.30;33.17;;;6.50;91.10;;;;;;5043631;28;20213;-66
2022/01/29 12:30:39;;;;;;;59.53;35.37;;;6.60;91.00;;;;;;5052526;28;20197;-67
2022/01/29 12:33:08;;;;;;;56.57;32.73;;;6.70;90.90;;;;;;5037895;28;20197;-67
2022/01/29 12:35:43;;;;;;;54.07;33.07;;;6.80;90.00;;;;;;5041978;28;20202;-67
2022/01/29 12:38:29;;;;;;;58.83;33.73;;;6.80;88.90;;;;;;5045283;28;20206;-66
2022/01/29 12:41:02;;;;;;;56.50;33.90;;;6.90;89.50;;;;;;5045181;28;20288;-67
2022/01/29 12:43:30;;;;;;;52.60;30.77;;;7.10;89.50;;;;;;5043371;28;20240;-66
2022/01/29 12:46:16;;;;;;;53.30;31.57;;;7.10;88.80;;;;;;5045964;28;20253;-67
2022/01/29 12:48:57;;;;;;;52.13;32.03;;;7.30;88.60;;;;;;5044758;28;20245;-67
2022/01/29 12:51:24;;;;;;;46.67;29.27;;;7.40;88.60;;;;;;5047716;28;20207;-67
2022/01/29 12:53:59;;;;;;;53.50;32.73;;;7.50;88.40;;;;;;5043213;28;20606;-67
2022/01/29 12:56:35;;;;;;;48.87;30.13;;;7.70;87.20;;;;;;5040995;28;20208;-66
2022/01/29 12:59:04;;;;;;;48.93;28.90;;;7.70;87.20;;;;;;5047637;28;20230;-67
2022/01/29 13:01:32;;;;;;;52.73;31.23;;;7.80;85.50;;;;;;5046728;28;20209;-66
2022/01/29 13:04:01;;;;;;;46.90;30.43;;;7.80;84.00;;;;;;5049645;28;20708;-66
2022/01/29 13:06:28;;;;;;;51.10;30.23;;;7.80;83.60;;;;;;5040317;28;20229;-67